Time;durP1;ratioP1;P1;durP2;ratioP2;P2;SDS_P1;SDS_P2;PMS_P1;PMS_P2;Temp;Humidity;BMP_temperature;BMP_pressure;BME280_temperature;BME280_humidity;BME280_pressure;Samples;Min_cycle;Max_cycle;Signal;HPM_P1;HPM_P2
2021/05/06 04:15:44;;;;;;;3.87;2.40;;;7.30;99.90;;;;;;4978262;28;20521;-64
2021/05/06 04:18:14;;;;;;;3.27;2.00;;;7.20;99.90;;;;;;4978083;28;20454;-64
2021/05/06 04:26:17;;;;;;;3.00;2.07;;;7.20;99.90;;;;;;4978045;28;20911;-65
2021/05/06 04:37:02;;;;;;;2.10;1.83;;;7.30;99.90;;;;;;4977911;28;20785;-63
2021/05/06 04:39:37;;;;;;;2.20;2.10;;;7.30;99.90;;;;;;4978070;28;20462;-64
2021/05/06 04:42:30;;;;;;;3.40;2.10;;;7.30;99.90;;;;;;4978078;28;20509;-65
2021/05/06 04:56:22;;;;;;;2.33;2.10;;;7.30;99.90;;;;;;4899431;29;20570;-65
2021/05/06 05:04:28;;;;;;;3.80;2.07;;;7.60;99.90;;;;;;4977144;28;20418;-65
2021/05/06 05:07:02;;;;;;;4.37;2.17;;;7.70;99.90;;;;;;4976792;28;20813;-65
2021/05/06 05:09:54;;;;;;;7.20;2.23;;;7.70;99.90;;;;;;4977190;28;20474;-65
2021/05/06 05:12:27;;;;;;;3.77;2.13;;;7.80;99.90;;;;;;4976925;28;20478;-63
2021/05/06 05:15:08;;;;;;;4.43;2.40;;;7.70;99.90;;;;;;4976913;28;20505;-65
2021/05/06 05:17:43;;;;;;;2.93;2.50;;;7.70;99.90;;;;;;4976784;28;20529;-63
2021/05/06 05:20:15;;;;;;;2.87;2.50;;;7.80;99.90;;;;;;4976854;28;20541;-63
2021/05/06 05:25:31;;;;;;;4.03;2.70;;;7.80;99.90;;;;;;4976815;28;20419;-62
2021/05/06 05:27:58;;;;;;;9.93;2.67;;;8.00;99.90;;;;;;4976741;28;20443;-63
2021/05/06 05:30:27;;;;;;;2.30;2.20;;;8.10;99.90;;;;;;4976332;28;20953;-63
2021/05/06 05:32:53;;;;;;;3.47;2.50;;;8.20;99.90;;;;;;4976688;28;20450;-64
2021/05/06 05:35:29;;;;;;;2.20;1.93;;;8.30;99.90;;;;;;4976115;28;20505;-64
2021/05/06 05:38:05;;;;;;;3.03;2.03;;;8.20;99.90;;;;;;4976509;28;20438;-64
2021/05/06 05:40:36;;;;;;;4.43;2.60;;;8.30;99.90;;;;;;4976406;28;20474;-65
2021/05/06 05:43:08;;;;;;;4.93;2.77;;;8.30;99.90;;;;;;4976266;28;20848;-65
2021/05/06 05:46:04;;;;;;;2.47;2.37;;;8.20;99.90;;;;;;4976300;28;20439;-64
2021/05/06 05:49:23;;;;;;;2.73;2.53;;;8.30;99.90;;;;;;4976224;28;20450;-64
2021/05/06 05:54:36;;;;;;;3.37;2.93;;;8.30;99.90;;;;;;4976036;28;20474;-65
2021/05/06 05:57:06;;;;;;;4.33;3.53;;;8.40;99.90;;;;;;4976223;28;20443;-63
2021/05/06 05:59:32;;;;;;;3.20;3.00;;;8.30;99.90;;;;;;4976207;28;20465;-65
2021/05/06 06:01:59;;;;;;;5.20;2.73;;;8.30;99.90;;;;;;4975779;28;20482;-65
2021/05/06 06:04:25;;;;;;;3.17;2.57;;;8.30;99.90;;;;;;4976060;28;20455;-64
2021/05/06 06:06:51;;;;;;;2.93;2.67;;;8.30;99.90;;;;;;4975958;28;20454;-66
2021/05/06 06:09:17;;;;;;;2.27;2.17;;;8.20;99.90;;;;;;4975921;28;20533;-64
2021/05/06 06:11:44;;;;;;;2.50;2.30;;;8.30;99.90;;;;;;4975850;28;20479;-64
2021/05/06 06:14:11;;;;;;;3.50;2.70;;;8.40;99.90;;;;;;4975958;28;20482;-64
2021/05/06 06:16:39;;;;;;;3.67;2.40;;;8.40;99.90;;;;;;4975592;28;20455;-64
2021/05/06 06:19:06;;;;;;;4.83;2.90;;;8.50;99.90;;;;;;4975835;28;20549;-64
2021/05/06 06:21:39;;;;;;;2.13;1.93;;;8.50;99.90;;;;;;4975546;28;21027;-64
2021/05/06 06:24:06;;;;;;;7.67;3.57;;;8.50;99.90;;;;;;4975759;28;20442;-64
2021/05/06 06:26:33;;;;;;;2.83;1.97;;;8.40;99.90;;;;;;4975639;28;20478;-64
2021/05/06 06:29:04;;;;;;;6.10;2.90;;;8.50;99.90;;;;;;4975833;28;20458;-65
2021/05/06 06:31:34;;;;;;;8.07;2.80;;;8.60;99.90;;;;;;4975648;28;20477;-65
2021/05/06 06:34:00;;;;;;;5.40;2.80;;;8.60;99.90;;;;;;4975666;28;20534;-63
2021/05/06 06:36:27;;;;;;;3.70;2.00;;;8.70;99.90;;;;;;4975611;28;20463;-64
2021/05/06 06:38:53;;;;;;;6.20;2.50;;;8.60;99.90;;;;;;4975255;28;20509;-66
2021/05/06 06:41:19;;;;;;;4.30;2.20;;;8.50;99.90;;;;;;4975552;28;20533;-65
2021/05/06 06:43:47;;;;;;;2.97;2.10;;;8.60;99.90;;;;;;4975523;28;20852;-63
2021/05/06 06:46:16;;;;;;;5.13;2.37;;;8.60;99.90;;;;;;4975063;28;20458;-63
2021/05/06 06:48:42;;;;;;;4.47;2.50;;;8.60;99.90;;;;;;4975145;28;20457;-63
2021/05/06 06:51:09;;;;;;;4.50;2.30;;;8.60;99.90;;;;;;4975302;28;21048;-64
2021/05/06 06:53:35;;;;;;;10.00;3.27;;;8.70;99.90;;;;;;4975156;28;20494;-64
2021/05/06 06:56:02;;;;;;;7.90;4.00;;;8.80;99.90;;;;;;4975028;28;20459;-64
2021/05/06 06:58:29;;;;;;;3.70;2.07;;;8.90;99.90;;;;;;4975098;28;20494;-64
2021/05/06 07:00:55;;;;;;;5.83;2.37;;;8.90;99.90;;;;;;4974725;28;20490;-64
2021/05/06 07:03:22;;;;;;;5.43;2.53;;;9.00;99.90;;;;;;4975251;28;20462;-64
2021/05/06 07:05:48;;;;;;;3.50;2.40;;;9.10;99.90;;;;;;4975337;28;20466;-65
2021/05/06 07:08:17;;;;;;;2.80;1.90;;;9.10;99.90;;;;;;4975119;28;20454;-65
2021/05/06 07:10:45;;;;;;;4.90;3.17;;;9.10;99.90;;;;;;4975066;28;20517;-64
2021/05/06 07:13:11;;;;;;;5.80;2.13;;;9.20;99.90;;;;;;4975063;28;20461;-64
2021/05/06 07:15:37;;;;;;;2.83;2.63;;;9.10;99.90;;;;;;4974940;28;20490;-64
2021/05/06 07:18:04;;;;;;;3.40;2.00;;;9.10;99.90;;;;;;4974550;28;20454;-64
2021/05/06 07:20:31;;;;;;;2.03;1.80;;;9.00;99.90;;;;;;4974727;28;20486;-64
2021/05/06 07:22:57;;;;;;;5.07;2.50;;;9.00;99.90;;;;;;4975579;28;20458;-64
2021/05/06 07:25:24;;;;;;;2.30;2.00;;;9.00;99.90;;;;;;4974581;28;20466;-64
2021/05/06 07:27:50;;;;;;;6.10;2.83;;;9.10;99.90;;;;;;4974784;28;20786;-64
2021/05/06 07:30:17;;;;;;;8.17;2.60;;;9.10;99.90;;;;;;4974825;28;20494;-63
2021/05/06 07:32:44;;;;;;;2.73;2.13;;;9.20;99.90;;;;;;4974824;28;20454;-64
2021/05/06 07:35:11;;;;;;;2.27;2.07;;;9.30;99.90;;;;;;4977117;28;20483;-64
2021/05/06 07:37:38;;;;;;;4.00;2.17;;;9.20;99.90;;;;;;4978375;28;20957;-63
2021/05/06 07:40:05;;;;;;;3.57;2.23;;;9.20;99.90;;;;;;4978618;28;20458;-64
2021/05/06 07:42:32;;;;;;;5.37;2.60;;;9.20;99.90;;;;;;4978543;28;20518;-63
2021/05/06 07:44:58;;;;;;;3.07;2.30;;;9.10;99.90;;;;;;4978508;28;20454;-64
2021/05/06 07:47:24;;;;;;;2.33;2.03;;;9.00;99.90;;;;;;4978739;28;20439;-63
2021/05/06 07:49:50;;;;;;;3.77;2.10;;;9.00;99.90;;;;;;4978342;28;20949;-63
2021/05/06 07:52:19;;;;;;;3.90;3.50;;;9.10;99.90;;;;;;4978433;28;20478;-64
2021/05/06 07:54:47;;;;;;;5.30;2.90;;;9.00;99.90;;;;;;4978376;28;20896;-64
2021/05/06 07:57:14;;;;;;;4.30;2.57;;;9.20;99.90;;;;;;4979083;28;20533;-64
2021/05/06 07:59:40;;;;;;;3.10;2.10;;;9.20;99.90;;;;;;4977984;28;20945;-64
2021/05/06 08:02:07;;;;;;;3.90;2.00;;;9.30;99.90;;;;;;4978015;28;21020;-63
2021/05/06 08:04:33;;;;;;;3.53;2.20;;;9.40;99.90;;;;;;4978345;28;20461;-64
2021/05/06 08:07:00;;;;;;;2.40;2.20;;;9.70;99.90;;;;;;4978458;28;20461;-64
2021/05/06 08:09:26;;;;;;;2.60;2.30;;;9.80;99.90;;;;;;4978307;28;20489;-64
2021/05/06 08:11:57;;;;;;;3.20;2.67;;;9.80;99.90;;;;;;4977864;28;20466;-64
2021/05/06 08:14:23;;;;;;;4.63;2.23;;;9.90;99.90;;;;;;4977983;28;20467;-66
2021/05/06 08:16:50;;;;;;;8.40;2.70;;;9.90;99.90;;;;;;4977698;28;20481;-64
2021/05/06 08:19:16;;;;;;;2.00;1.90;;;9.90;99.90;;;;;;4978856;28;20450;-64
2021/05/06 08:21:43;;;;;;;3.93;2.20;;;9.90;99.90;;;;;;4978582;28;20475;-64
2021/05/06 08:24:09;;;;;;;5.97;2.47;;;9.90;99.90;;;;;;4978580;28;20450;-64
2021/05/06 08:26:36;;;;;;;3.67;2.60;;;9.90;99.90;;;;;;4978444;28;20454;-64
2021/05/06 08:29:03;;;;;;;2.60;2.40;;;10.00;99.90;;;;;;4977885;28;20463;-64
2021/05/06 08:31:29;;;;;;;3.83;2.93;;;10.00;99.90;;;;;;4977616;28;20478;-64
2021/05/06 08:33:56;;;;;;;5.23;3.53;;;10.10;99.90;;;;;;4977719;28;20809;-64
2021/05/06 08:36:23;;;;;;;3.83;2.33;;;10.00;99.90;;;;;;4977918;28;20465;-64
2021/05/06 08:38:49;;;;;;;3.70;2.40;;;10.00;99.90;;;;;;4977840;28;20510;-63
2021/05/06 08:41:15;;;;;;;2.57;2.33;;;10.00;99.90;;;;;;4977662;28;20474;-64
2021/05/06 08:43:46;;;;;;;3.13;2.27;;;10.00;99.90;;;;;;4977626;28;20461;-64
2021/05/06 08:46:15;;;;;;;3.00;2.40;;;10.10;99.90;;;;;;4976464;28;20624;-63
2021/05/06 08:48:43;;;;;;;5.67;2.40;;;10.10;99.90;;;;;;4977528;28;20525;-63
2021/05/06 08:51:09;;;;;;;4.13;2.30;;;10.20;99.90;;;;;;4977183;28;20502;-64
2021/05/06 08:53:37;;;;;;;4.10;3.00;;;10.20;99.90;;;;;;4977223;28;20459;-63
2021/05/06 08:56:03;;;;;;;7.50;2.23;;;10.10;99.90;;;;;;4977360;28;20482;-64
2021/05/06 08:58:29;;;;;;;2.80;2.37;;;10.20;99.90;;;;;;4977417;28;20455;-64
2021/05/06 09:00:56;;;;;;;7.50;2.17;;;10.10;99.90;;;;;;4977018;28;20509;-64
2021/05/06 09:03:23;;;;;;;4.63;2.57;;;10.20;99.90;;;;;;4977223;28;20466;-64
2021/05/06 09:06:10;;;;;;;2.70;2.27;;;10.20;99.90;;;;;;4976828;28;20980;-64
2021/05/06 09:08:37;;;;;;;5.20;2.70;;;10.20;99.90;;;;;;4977099;28;20546;-64
2021/05/06 09:11:03;;;;;;;6.30;2.57;;;10.10;99.90;;;;;;4977395;28;20486;-64
2021/05/06 09:13:31;;;;;;;4.60;2.33;;;10.20;99.90;;;;;;4977429;28;20459;-64
2021/05/06 09:15:58;;;;;;;4.33;2.27;;;10.30;99.90;;;;;;4977177;28;20501;-64
2021/05/06 09:18:36;;;;;;;3.60;2.20;;;10.20;99.90;;;;;;4976932;28;20463;-64
2021/05/06 09:21:03;;;;;;;2.60;2.10;;;10.20;99.90;;;;;;4976656;28;20483;-64
2021/05/06 09:23:29;;;;;;;2.80;1.90;;;10.40;99.90;;;;;;4977152;28;20527;-64
2021/05/06 09:25:55;;;;;;;5.20;2.00;;;10.50;99.90;;;;;;4977136;28;20444;-65
2021/05/06 09:28:22;;;;;;;3.77;2.20;;;10.60;99.90;;;;;;4976982;28;20461;-64
2021/05/06 09:30:52;;;;;;;4.63;1.93;;;10.60;99.90;;;;;;4976592;28;20566;-65
2021/05/06 09:33:19;;;;;;;5.50;2.27;;;10.70;99.90;;;;;;4976972;28;20461;-64
2021/05/06 09:35:48;;;;;;;4.67;3.07;;;10.70;99.90;;;;;;4976643;28;20529;-64
2021/05/06 09:38:30;;;;;;;4.47;2.53;;;10.60;99.90;;;;;;4976671;28;20462;-64
2021/05/06 09:41:00;;;;;;;3.50;2.23;;;10.70;99.90;;;;;;4974036;28;21021;-64
2021/05/06 09:43:29;;;;;;;3.70;2.20;;;10.80;99.90;;;;;;4976702;28;20446;-64
2021/05/06 09:45:56;;;;;;;8.63;2.50;;;10.90;99.90;;;;;;4976531;28;20538;-64
2021/05/06 09:48:23;;;;;;;4.40;2.80;;;11.00;99.90;;;;;;4976848;28;20450;-64
2021/05/06 09:50:53;;;;;;;2.70;2.33;;;11.10;99.90;;;;;;4976364;28;20821;-66
2021/05/06 09:53:22;;;;;;;3.20;2.40;;;11.00;99.90;;;;;;4976425;28;20478;-64
2021/05/06 09:55:50;;;;;;;2.30;2.03;;;11.10;99.90;;;;;;4976002;28;20997;-63
2021/05/06 09:58:18;;;;;;;5.60;2.63;;;11.00;99.90;;;;;;4976026;28;20581;-64
2021/05/06 10:00:46;;;;;;;2.50;2.30;;;10.90;99.90;;;;;;4976038;28;20916;-64
2021/05/06 10:03:14;;;;;;;5.87;2.60;;;11.00;99.90;;;;;;4976300;28;20822;-63
2021/05/06 10:05:42;;;;;;;4.73;2.10;;;11.10;99.90;;;;;;4975871;28;20454;-64
2021/05/06 10:08:10;;;;;;;4.13;2.20;;;11.10;99.90;;;;;;4976026;28;20455;-64
2021/05/06 10:10:36;;;;;;;5.50;2.63;;;11.20;99.90;;;;;;4975765;28;20486;-64
2021/05/06 10:13:04;;;;;;;5.00;2.70;;;11.20;99.90;;;;;;4976208;28;20545;-64
2021/05/06 10:15:30;;;;;;;4.50;2.80;;;11.30;99.90;;;;;;4976037;28;20541;-64
2021/05/06 10:17:57;;;;;;;7.43;2.87;;;11.40;99.90;;;;;;4975974;28;20454;-64
2021/05/06 10:20:25;;;;;;;4.53;2.60;;;11.30;99.90;;;;;;4975741;28;20516;-64
2021/05/06 10:22:53;;;;;;;3.80;2.30;;;11.30;99.90;;;;;;4976003;28;20501;-64
2021/05/06 10:25:21;;;;;;;4.27;2.57;;;11.40;99.90;;;;;;4975832;28;20454;-64
2021/05/06 10:27:49;;;;;;;6.00;3.10;;;11.40;99.90;;;;;;4976269;28;20626;-64
2021/05/06 10:30:16;;;;;;;4.63;2.90;;;11.40;99.90;;;;;;4976102;28;20605;-64
2021/05/06 10:32:44;;;;;;;5.67;2.60;;;11.30;99.90;;;;;;4975741;28;20968;-64
2021/05/06 10:35:13;;;;;;;3.13;2.27;;;11.20;99.90;;;;;;4975778;28;20993;-64
2021/05/06 10:37:41;;;;;;;5.93;2.50;;;11.30;99.90;;;;;;4976260;28;20462;-64
2021/05/06 10:40:25;;;;;;;7.20;2.33;;;11.30;99.90;;;;;;4975746;28;20461;-64
2021/05/06 10:42:52;;;;;;;2.73;2.47;;;11.20;99.90;;;;;;4975867;28;20450;-63
2021/05/06 10:45:36;;;;;;;2.73;2.50;;;11.20;99.90;;;;;;4976173;28;20474;-63
2021/05/06 10:48:03;;;;;;;3.30;2.27;;;11.20;99.90;;;;;;4976002;28;20447;-64
2021/05/06 10:50:38;;;;;;;3.50;2.50;;;11.20;99.90;;;;;;4975299;28;20454;-63
2021/05/06 10:53:05;;;;;;;6.17;3.13;;;11.20;99.90;;;;;;4975422;28;20455;-67
2021/05/06 10:55:54;;;;;;;6.27;2.90;;;11.20;99.90;;;;;;4975230;28;20485;-66
2021/05/06 10:58:38;;;;;;;7.20;2.77;;;11.30;99.90;;;;;;4969123;28;20455;-65
2021/05/06 11:01:23;;;;;;;3.83;2.90;;;11.10;99.90;;;;;;4974937;28;20613;-65
2021/05/06 11:04:10;;;;;;;3.37;3.07;;;11.10;99.90;;;;;;4974817;28;20913;-65
2021/05/06 11:06:42;;;;;;;3.33;2.93;;;11.10;99.90;;;;;;4975268;28;20458;-65
2021/05/06 11:10:04;;;;;;;7.53;2.50;;;11.10;99.90;;;;;;4974594;28;20791;-64
2021/05/06 11:12:39;;;;;;;3.90;2.23;;;11.00;99.90;;;;;;4975096;28;20500;-65
2021/05/06 11:15:31;;;;;;;4.70;2.60;;;10.80;99.90;;;;;;4974841;28;20459;-65
2021/05/06 11:17:59;;;;;;;3.50;2.37;;;10.90;99.90;;;;;;4974920;28;20435;-65
2021/05/06 11:20:46;;;;;;;4.93;2.37;;;11.00;99.90;;;;;;4974758;28;20504;-65
2021/05/06 11:23:26;;;;;;;4.80;2.27;;;11.00;99.90;;;;;;4974879;28;20435;-64
2021/05/06 11:26:01;;;;;;;5.97;2.27;;;11.00;99.90;;;;;;4975096;28;20438;-65
2021/05/06 11:28:45;;;;;;;6.37;4.27;;;10.90;99.90;;;;;;4974996;28;20470;-63
2021/05/06 11:31:11;;;;;;;6.03;1.90;;;11.10;99.90;;;;;;4974901;28;20474;-65
2021/05/06 11:33:38;;;;;;;7.00;2.10;;;11.10;99.90;;;;;;4975906;28;20454;-64
2021/05/06 11:36:07;;;;;;;2.03;1.33;;;11.00;99.90;;;;;;4974782;28;20482;-64
2021/05/06 11:38:44;;;;;;;2.43;1.10;;;10.90;99.90;;;;;;4975022;28;20478;-65
2021/05/06 11:41:12;;;;;;;1.70;1.60;;;11.00;99.90;;;;;;4974746;28;20525;-65
2021/05/06 11:43:40;;;;;;;2.10;1.43;;;10.90;99.90;;;;;;4974846;28;20461;-65
2021/05/06 11:46:09;;;;;;;1.63;1.53;;;10.90;99.90;;;;;;4974543;28;20889;-65
2021/05/06 11:48:35;;;;;;;2.30;1.50;;;10.80;99.90;;;;;;4974291;28;20455;-64
2021/05/06 11:51:02;;;;;;;3.40;1.80;;;10.90;99.90;;;;;;4974444;28;21008;-65
2021/05/06 11:53:28;;;;;;;1.93;1.50;;;10.80;99.90;;;;;;4974707;28;20459;-65
2021/05/06 11:55:54;;;;;;;2.00;1.23;;;10.80;99.90;;;;;;4974476;28;20479;-65
2021/05/06 11:58:25;;;;;;;2.20;1.47;;;10.90;99.90;;;;;;4974251;28;20465;-64
2021/05/06 12:00:55;;;;;;;2.37;1.40;;;10.90;99.90;;;;;;4974343;28;20513;-64
2021/05/06 12:03:34;;;;;;;3.27;1.47;;;10.90;99.90;;;;;;4974634;28;20461;-65
2021/05/06 12:06:01;;;;;;;2.20;1.53;;;10.90;99.90;;;;;;4974589;28;20438;-64
2021/05/06 12:08:30;;;;;;;1.73;1.50;;;11.00;99.90;;;;;;4974273;28;20501;-64
2021/05/06 12:11:00;;;;;;;1.67;1.57;;;10.90;99.90;;;;;;4974350;28;20474;-63
2021/05/06 12:13:32;;;;;;;1.20;1.10;;;11.00;99.90;;;;;;4974994;28;20462;-64
2021/05/06 12:16:12;;;;;;;2.30;1.10;;;10.90;99.90;;;;;;4974961;28;20467;-64
2021/05/06 12:18:40;;;;;;;2.73;1.13;;;10.90;99.90;;;;;;4974494;28;20463;-64
2021/05/06 12:21:06;;;;;;;1.00;1.00;;;10.90;99.90;;;;;;4976578;28;20474;-63
2021/05/06 12:23:34;;;;;;;1.20;1.20;;;10.90;99.90;;;;;;4977741;28;20459;-63
2021/05/06 12:26:00;;;;;;;1.50;1.40;;;10.90;99.90;;;;;;4977890;28;20450;-64
2021/05/06 12:28:27;;;;;;;1.60;1.50;;;11.00;99.90;;;;;;4978034;28;20454;-63
2021/05/06 12:30:58;;;;;;;1.20;1.20;;;11.00;99.90;;;;;;4977808;28;20478;-64
2021/05/06 12:33:31;;;;;;;1.10;1.10;;;11.00;99.90;;;;;;4977738;28;20451;-65
2021/05/06 12:35:58;;;;;;;1.50;1.40;;;11.00;99.90;;;;;;4977591;28;20880;-65
2021/05/06 12:38:24;;;;;;;2.77;1.80;;;11.10;99.90;;;;;;4977710;28;20521;-65
2021/05/06 12:40:52;;;;;;;1.47;1.37;;;11.20;99.90;;;;;;4977295;28;20478;-63
2021/05/06 12:43:28;;;;;;;1.53;1.43;;;11.20;99.90;;;;;;4977639;28;20463;-64
2021/05/06 12:45:58;;;;;;;1.80;1.33;;;11.10;99.90;;;;;;4977701;28;20443;-64
2021/05/06 12:48:39;;;;;;;2.07;1.40;;;11.20;99.90;;;;;;4977618;28;20801;-65
2021/05/06 12:51:07;;;;;;;1.60;1.50;;;11.20;99.90;;;;;;4978520;28;20478;-64
2021/05/06 12:53:33;;;;;;;1.47;1.30;;;11.20;99.90;;;;;;4978880;28;20595;-65
2021/05/06 12:55:59;;;;;;;1.87;1.63;;;11.20;99.90;;;;;;4977758;28;20613;-63
2021/05/06 12:58:31;;;;;;;2.37;1.43;;;11.20;99.90;;;;;;4977172;28;20823;-63
2021/05/06 13:01:14;;;;;;;1.70;1.33;;;11.10;99.90;;;;;;4976912;28;20997;-64
2021/05/06 13:03:43;;;;;;;1.73;1.63;;;11.20;99.90;;;;;;4977691;28;20825;-64
2021/05/06 13:06:11;;;;;;;3.20;2.23;;;11.20;99.90;;;;;;4977306;28;20858;-65
2021/05/06 13:08:39;;;;;;;1.63;1.53;;;11.20;99.90;;;;;;4977204;28;20455;-63
2021/05/06 13:11:07;;;;;;;1.80;1.70;;;11.20;99.90;;;;;;4977146;28;20478;-64
2021/05/06 13:13:39;;;;;;;1.67;1.60;;;11.10;99.90;;;;;;4977449;28;20446;-65
2021/05/06 13:16:06;;;;;;;1.70;1.60;;;11.10;99.90;;;;;;4976973;28;20478;-64
2021/05/06 13:18:33;;;;;;;1.80;1.70;;;10.90;99.90;;;;;;4978418;28;20439;-63
2021/05/06 13:20:59;;;;;;;2.43;1.57;;;10.80;99.90;;;;;;4977905;28;20482;-64
2021/05/06 13:23:29;;;;;;;1.40;1.30;;;10.80;99.90;;;;;;4978363;28;20461;-65
2021/05/06 13:25:57;;;;;;;3.63;1.60;;;10.70;99.90;;;;;;4977066;28;20454;-63
2021/05/06 13:28:42;;;;;;;1.73;1.70;;;10.60;99.90;;;;;;4977126;28;20439;-63
2021/05/06 13:31:11;;;;;;;2.03;1.80;;;10.50;99.90;;;;;;4976695;28;20474;-63
2021/05/06 13:33:39;;;;;;;1.93;1.50;;;10.50;99.90;;;;;;4976445;28;20451;-62
2021/05/06 13:36:06;;;;;;;4.93;2.60;;;10.30;99.90;;;;;;4976737;28;20590;-64
2021/05/06 13:38:50;;;;;;;1.80;1.70;;;10.20;99.90;;;;;;4976264;28;20835;-64
2021/05/06 13:41:17;;;;;;;2.43;2.23;;;10.00;99.90;;;;;;4976723;28;20475;-64
2021/05/06 13:43:44;;;;;;;2.67;2.00;;;10.00;99.90;;;;;;4976780;28;20447;-64
2021/05/06 13:46:10;;;;;;;2.60;2.40;;;9.90;99.90;;;;;;4976444;28;20454;-62
2021/05/06 13:48:37;;;;;;;2.00;1.90;;;9.90;99.90;;;;;;4976697;28;20440;-63
2021/05/06 13:51:04;;;;;;;2.27;2.17;;;9.90;99.90;;;;;;4976414;28;20996;-62
2021/05/06 13:53:30;;;;;;;2.50;2.30;;;9.90;99.90;;;;;;4976641;28;20868;-62
2021/05/06 13:55:57;;;;;;;3.30;2.40;;;9.80;99.90;;;;;;4977356;28;20486;-64
2021/05/06 13:58:24;;;;;;;2.67;2.57;;;9.90;99.90;;;;;;4977924;28;20463;-62
2021/05/06 14:00:51;;;;;;;2.60;2.40;;;9.90;99.90;;;;;;4977493;28;20533;-63
2021/05/06 14:03:17;;;;;;;1.87;1.80;;;9.70;99.90;;;;;;4978098;28;20461;-62
2021/05/06 14:05:43;;;;;;;3.47;2.40;;;9.70;99.90;;;;;;4977309;28;20533;-64
2021/05/06 14:08:13;;;;;;;3.17;2.17;;;9.60;99.90;;;;;;4976537;28;20545;-64
2021/05/06 14:10:40;;;;;;;3.23;2.47;;;9.50;99.90;;;;;;4976349;28;20479;-62
2021/05/06 14:13:07;;;;;;;3.10;2.80;;;9.50;99.90;;;;;;4976161;28;20462;-63
2021/05/06 14:15:33;;;;;;;2.90;2.63;;;9.60;99.90;;;;;;4976095;28;20510;-63
2021/05/06 14:17:59;;;;;;;2.93;2.70;;;9.60;99.90;;;;;;4976731;28;20459;-62
2021/05/06 14:20:25;;;;;;;2.80;2.60;;;9.60;99.90;;;;;;4975927;28;20513;-63
2021/05/06 14:22:52;;;;;;;3.33;2.50;;;9.50;99.90;;;;;;4976428;28;20455;-63
2021/05/06 14:25:18;;;;;;;4.77;3.23;;;9.50;99.90;;;;;;4975861;28;20526;-63
2021/05/06 14:27:44;;;;;;;3.47;3.17;;;9.60;99.90;;;;;;4975565;28;20455;-62
2021/05/06 14:30:13;;;;;;;4.20;3.80;;;9.50;99.90;;;;;;4975811;28;20458;-63
2021/05/06 14:32:39;;;;;;;3.20;3.00;;;9.50;99.90;;;;;;4975840;28;20529;-63
2021/05/06 14:35:06;;;;;;;4.07;3.67;;;9.50;99.90;;;;;;4975826;28;20474;-63
2021/05/06 14:37:32;;;;;;;4.87;3.70;;;9.50;99.90;;;;;;4975521;28;20454;-62
2021/05/06 14:39:59;;;;;;;4.07;3.77;;;9.40;99.90;;;;;;4976127;28;20458;-62
2021/05/06 14:42:25;;;;;;;5.07;4.50;;;9.40;99.90;;;;;;4975570;28;20490;-62
2021/05/06 14:44:52;;;;;;;6.83;4.47;;;9.30;99.90;;;;;;4975712;28;20461;-63
2021/05/06 14:47:19;;;;;;;4.77;4.47;;;9.30;99.90;;;;;;4976209;28;20443;-64
2021/05/06 14:49:45;;;;;;;4.93;4.53;;;9.30;99.90;;;;;;4975791;28;20462;-63
2021/05/06 14:52:12;;;;;;;4.80;4.40;;;9.40;99.90;;;;;;4975333;28;20475;-64
2021/05/06 14:54:38;;;;;;;6.30;4.50;;;9.40;99.90;;;;;;4975634;28;20492;-63
2021/05/06 14:57:05;;;;;;;7.77;4.70;;;9.40;99.90;;;;;;4975410;28;20463;-63
2021/05/06 14:59:32;;;;;;;6.83;5.40;;;9.30;99.90;;;;;;4975616;28;20455;-63
2021/05/06 15:01:58;;;;;;;12.63;5.03;;;9.40;99.90;;;;;;4975232;28;20482;-64
2021/05/06 15:04:25;;;;;;;9.33;5.43;;;9.40;99.90;;;;;;4975392;28;20463;-63
2021/05/06 15:06:52;;;;;;;5.83;5.13;;;9.40;99.90;;;;;;4974810;28;20976;-63
2021/05/06 15:09:19;;;;;;;5.20;4.80;;;9.20;99.90;;;;;;4975400;28;20455;-63
2021/05/06 15:11:45;;;;;;;6.87;5.57;;;9.20;99.90;;;;;;4977891;28;20890;-62
2021/05/06 15:14:12;;;;;;;5.40;5.00;;;9.30;99.90;;;;;;4976926;28;20451;-63
2021/05/06 15:16:38;;;;;;;6.37;5.60;;;9.30;99.90;;;;;;4974673;28;20985;-63
2021/05/06 15:19:04;;;;;;;6.70;4.80;;;9.30;99.90;;;;;;4975274;28;20458;-62
2021/05/06 15:21:31;;;;;;;5.07;4.57;;;9.30;99.90;;;;;;4975481;28;20536;-62
2021/05/06 15:23:57;;;;;;;7.03;3.83;;;9.20;99.90;;;;;;4974682;28;20980;-62
2021/05/06 15:26:24;;;;;;;3.07;2.87;;;9.20;99.90;;;;;;4975157;28;20450;-62
2021/05/06 15:28:51;;;;;;;4.87;2.67;;;9.20;99.90;;;;;;4974748;28;20825;-62
2021/05/06 15:31:18;;;;;;;1.97;1.87;;;9.20;99.90;;;;;;4974778;28;20479;-62
2021/05/06 15:33:44;;;;;;;1.70;1.60;;;9.10;99.90;;;;;;4974713;28;20964;-62
2021/05/06 15:36:12;;;;;;;1.37;1.20;;;9.10;99.90;;;;;;4974656;28;20471;-64
2021/05/06 15:38:39;;;;;;;1.50;1.40;;;9.00;99.90;;;;;;4974714;28;20455;-61
2021/05/06 15:41:05;;;;;;;1.40;1.40;;;9.00;99.90;;;;;;4974633;28;20498;-62
2021/05/06 15:43:32;;;;;;;1.27;1.27;;;9.10;99.90;;;;;;4974403;28;20454;-61
2021/05/06 15:45:58;;;;;;;1.50;1.10;;;9.00;99.90;;;;;;4974315;28;20941;-61
2021/05/06 15:48:24;;;;;;;1.10;1.10;;;9.00;99.90;;;;;;4974670;28;20458;-61
2021/05/06 15:50:50;;;;;;;1.33;1.23;;;9.10;99.90;;;;;;4975091;28;20525;-62
2021/05/06 15:53:16;;;;;;;2.73;1.80;;;9.10;99.90;;;;;;4974486;28;20458;-62
2021/05/06 15:55:43;;;;;;;3.57;1.97;;;9.10;99.90;;;;;;4976212;28;20569;-62
2021/05/06 15:58:10;;;;;;;1.90;1.80;;;9.20;99.90;;;;;;4978543;28;20465;-62
2021/05/06 16:00:37;;;;;;;2.17;2.07;;;9.30;99.90;;;;;;4977775;28;20482;-62
2021/05/06 16:03:08;;;;;;;1.77;1.67;;;9.50;99.90;;;;;;4978470;28;20447;-62
2021/05/06 16:05:37;;;;;;;2.07;1.80;;;9.50;99.90;;;;;;4979067;28;20437;-64
2021/05/06 16:08:04;;;;;;;1.83;1.73;;;9.50;99.90;;;;;;4978860;28;20918;-63
2021/05/06 16:10:31;;;;;;;2.10;2.00;;;9.40;99.90;;;;;;4978269;28;20454;-63
2021/05/06 16:12:58;;;;;;;1.87;1.77;;;9.30;99.90;;;;;;4978353;28;20454;-62
2021/05/06 16:15:25;;;;;;;2.50;2.13;;;9.30;99.90;;;;;;4978265;28;20474;-63
2021/05/06 16:17:52;;;;;;;3.60;2.50;;;9.10;99.90;;;;;;4980613;28;20513;-63
2021/05/06 16:20:20;;;;;;;3.63;2.10;;;9.20;99.90;;;;;;4983622;28;20445;-63
2021/05/06 16:22:47;;;;;;;1.90;1.80;;;9.20;99.90;;;;;;4983543;28;20534;-63
2021/05/06 16:25:15;;;;;;;1.97;1.87;;;9.20;99.90;;;;;;4983816;28;20462;-63
2021/05/06 16:27:44;;;;;;;1.80;1.70;;;9.10;99.90;;;;;;4984471;28;20469;-63
2021/05/06 16:30:12;;;;;;;1.60;1.40;;;9.10;99.90;;;;;;4984318;28;20457;-63
2021/05/06 16:32:40;;;;;;;1.60;1.60;;;9.20;99.90;;;;;;4982953;28;20481;-62
2021/05/06 16:35:10;;;;;;;3.03;1.77;;;9.20;99.90;;;;;;4978990;28;20478;-63
2021/05/06 16:37:42;;;;;;;1.77;1.70;;;9.30;99.90;;;;;;4984040;28;20458;-63
2021/05/06 16:40:14;;;;;;;1.90;1.80;;;9.30;99.90;;;;;;4985587;28;20443;-64
2021/05/06 16:43:09;;;;;;;1.80;1.70;;;9.40;99.90;;;;;;4985298;28;20902;-64
2021/05/06 16:45:39;;;;;;;1.80;1.70;;;9.40;99.90;;;;;;4985246;28;20765;-64
2021/05/06 16:48:07;;;;;;;2.37;2.17;;;9.40;99.90;;;;;;4985184;28;20451;-64
2021/05/06 16:50:33;;;;;;;2.30;2.10;;;9.40;99.90;;;;;;4979870;28;20466;-64
2021/05/06 16:52:59;;;;;;;2.97;2.67;;;9.30;99.90;;;;;;4978852;28;20459;-62
2021/05/06 16:55:26;;;;;;;1.93;1.90;;;9.40;99.90;;;;;;4978255;28;20474;-65
2021/05/06 16:57:52;;;;;;;1.80;1.80;;;9.50;99.90;;;;;;4977985;28;21017;-65
2021/05/06 17:00:20;;;;;;;1.53;1.53;;;9.40;99.90;;;;;;4978332;28;20493;-62
2021/05/06 17:02:49;;;;;;;2.47;1.70;;;9.40;99.90;;;;;;4978132;28;20439;-62
2021/05/06 17:05:15;;;;;;;1.37;1.37;;;9.50;99.90;;;;;;4981887;28;20498;-63
2021/05/06 17:07:43;;;;;;;2.33;2.10;;;9.40;99.90;;;;;;4983188;28;20813;-65
2021/05/06 17:10:10;;;;;;;1.87;1.77;;;9.40;99.90;;;;;;4983184;28;20530;-65
2021/05/06 17:12:37;;;;;;;1.70;1.60;;;9.30;99.90;;;;;;4983892;28;20479;-64
2021/05/06 17:15:04;;;;;;;6.63;2.30;;;9.30;99.90;;;;;;4982651;28;20541;-64
2021/05/06 17:17:30;;;;;;;8.03;2.23;;;9.30;99.90;;;;;;4982455;28;20459;-64
2021/05/06 17:19:57;;;;;;;2.00;1.90;;;9.40;99.90;;;;;;4982792;28;20454;-62
2021/05/06 17:22:24;;;;;;;3.90;2.47;;;9.30;99.90;;;;;;4982909;28;20499;-63
2021/05/06 17:24:50;;;;;;;2.00;1.90;;;9.40;99.90;;;;;;4982531;28;20937;-63
2021/05/06 17:27:16;;;;;;;2.70;2.20;;;9.40;99.90;;;;;;4981664;28;20466;-63
2021/05/06 17:29:42;;;;;;;2.80;2.60;;;9.30;99.90;;;;;;4977941;28;20443;-63
2021/05/06 17:32:09;;;;;;;4.30;2.63;;;9.30;99.90;;;;;;4977720;28;20486;-62
2021/05/06 17:34:35;;;;;;;3.17;2.80;;;9.30;99.90;;;;;;4977185;28;20938;-63
2021/05/06 17:37:02;;;;;;;3.07;2.77;;;9.30;99.90;;;;;;4977364;28;20454;-63
2021/05/06 17:39:29;;;;;;;2.87;2.67;;;9.40;99.90;;;;;;4977193;28;20455;-63
2021/05/06 17:41:55;;;;;;;2.50;2.30;;;9.40;99.90;;;;;;4977393;28;20478;-61
2021/05/06 17:44:22;;;;;;;2.73;2.53;;;9.50;99.90;;;;;;4976919;28;20505;-62
2021/05/06 17:46:48;;;;;;;2.77;2.60;;;9.50;99.90;;;;;;4976770;28;20505;-64
2021/05/06 17:49:14;;;;;;;3.83;3.00;;;9.50;99.90;;;;;;4976830;28;20461;-62
2021/05/06 17:51:42;;;;;;;3.20;3.00;;;9.60;99.90;;;;;;4976660;28;20514;-63
2021/05/06 17:54:09;;;;;;;3.27;3.07;;;9.50;99.90;;;;;;4976883;28;20458;-62